Time;durP1;ratioP1;P1;durP2;ratioP2;P2;SDS_P1;SDS_P2;PMS_P1;PMS_P2;Temp;Humidity;BMP_temperature;BMP_pressure;BME280_temperature;BME280_humidity;BME280_pressure;Samples;Min_cycle;Max_cycle;Signal;HPM_P1;HPM_P2
2021/12/20 10:59:11;;;;;;;9.32;2.95;;;;;;;4.02;66.16;98995.00;5856562;23;20028;-47
2021/12/20 11:04:26;;;;;;;13.70;2.90;;;;;;;3.98;66.29;98997.72;4859677;29;20038;-50
2021/12/20 11:09:44;;;;;;;9.18;3.40;;;;;;;4.27;65.76;98995.13;4856670;29;20108;-56
2021/12/20 11:12:15;;;;;;;8.27;2.80;;;;;;;4.41;65.39;98992.09;4833917;29;20037;-53
2021/12/20 11:14:45;;;;;;;11.63;3.47;;;;;;;4.47;63.79;98986.72;4859090;29;20037;-55
2021/12/20 11:17:15;;;;;;;9.52;3.00;;;;;;;4.37;65.10;98989.63;4862232;29;20033;-54
2021/12/20 11:19:48;;;;;;;9.48;2.67;;;;;;;4.55;63.63;98993.44;4843816;29;20038;-54
2021/12/20 11:22:14;;;;;;;8.70;2.72;;;;;;;4.60;62.32;98996.72;4850409;29;20030;-53
2021/12/20 11:25:11;;;;;;;7.35;2.15;;;;;;;4.50;62.70;98983.16;4839977;29;20083;-53
2021/12/20 11:27:42;;;;;;;7.93;2.40;;;;;;;4.56;61.00;98975.19;4840888;29;20395;-52
2021/12/20 11:30:08;;;;;;;7.90;2.77;;;;;;;4.59;61.41;98977.69;4809811;29;20057;-52
2021/12/20 11:32:34;;;;;;;7.88;2.28;;;;;;;4.73;58.92;98977.25;4821945;29;20054;-53
2021/12/20 11:34:59;;;;;;;7.20;2.30;;;;;;;4.80;58.61;98978.72;4823570;29;20122;-52
2021/12/20 11:37:26;;;;;;;8.13;2.03;;;;;;;4.74;57.95;98976.31;4842615;29;20045;-49
2021/12/20 11:39:51;;;;;;;8.88;2.38;;;;;;;4.48;58.27;98974.59;4839244;29;20045;-50
2021/12/20 11:42:17;;;;;;;11.15;4.10;;;;;;;4.50;58.92;98971.03;4826681;29;20398;-50
2021/12/20 11:44:44;;;;;;;8.27;2.67;;;;;;;4.59;58.96;98976.84;4840230;29;20054;-50
2021/12/20 11:47:32;;;;;;;10.02;2.78;;;;;;;4.64;60.04;98973.16;4812058;29;20129;-49
2021/12/20 11:50:01;;;;;;;10.73;2.90;;;;;;;4.80;58.77;98973.53;4836579;29;20418;-49
2021/12/20 11:52:34;;;;;;;8.18;2.55;;;;;;;4.75;59.57;98970.25;4843086;29;20036;-51
2021/12/20 11:55:00;;;;;;;6.78;2.08;;;;;;;4.88;57.02;98966.31;4827524;29;20042;-50
2021/12/20 11:57:28;;;;;;;8.45;1.90;;;;;;;4.85;56.16;98971.66;4842529;29;20395;-51
2021/12/20 11:59:55;;;;;;;6.85;1.90;;;;;;;4.70;57.11;98972.13;4841954;29;20117;-51
2021/12/20 12:02:28;;;;;;;6.38;1.80;;;;;;;4.66;57.78;98963.59;4827546;29;20582;-48
2021/12/20 12:04:57;;;;;;;5.43;1.55;;;;;;;4.86;55.26;98964.69;4852465;29;20049;-53
2021/12/20 12:07:24;;;;;;;5.35;1.58;;;;;;;4.94;50.31;98966.13;4863289;29;20064;-48
2021/12/20 12:09:56;;;;;;;4.20;1.25;;;;;;;4.63;49.26;98974.09;4832828;29;20029;-50
2021/12/20 12:12:23;;;;;;;3.00;1.10;;;;;;;4.61;49.70;98962.03;4873198;29;20037;-51
2021/12/20 12:15:06;;;;;;;3.17;1.27;;;;;;;4.69;49.11;98965.25;4842539;29;20443;-50
2021/12/20 12:18:03;;;;;;;3.80;0.95;;;;;;;4.64;49.25;98973.16;4858499;29;20033;-50
2021/12/20 12:20:37;;;;;;;6.00;1.10;;;;;;;4.81;49.23;98975.22;4830399;29;20042;-51
2021/12/20 12:23:29;;;;;;;2.92;0.88;;;;;;;4.81;50.07;98969.19;4844000;29;20129;-53
2021/12/20 12:25:55;;;;;;;;;;;;;;;4.70;50.70;98972.13;4848911;29;20056;-51
2021/12/20 12:28:27;;;;;;;4.95;1.15;;;;;;;4.62;51.37;98968.94;4848014;29;19916;-50
2021/12/20 12:31:02;;;;;;;4.45;1.38;;;;;;;4.64;53.66;98961.94;4842934;29;20125;-49
2021/12/20 12:33:29;;;;;;;3.05;1.10;;;;;;;4.90;51.29;98964.53;4842867;29;20030;-55
2021/12/20 12:35:56;;;;;;;7.00;1.40;;;;;;;4.71;50.91;98953.03;4843148;29;20030;-50
2021/12/20 12:38:25;;;;;;;3.47;0.90;;;;;;;4.73;50.28;98957.28;4842868;29;20051;-52
2021/12/20 12:41:11;;;;;;;5.80;1.48;;;;;;;4.86;51.33;98954.31;4859944;29;20101;-53
2021/12/20 12:44:07;;;;;;;4.38;1.17;;;;;;;4.92;49.76;98956.66;4843639;29;20025;-52
2021/12/20 12:46:35;;;;;;;2.22;0.90;;;;;;;5.15;46.78;98954.13;4842250;29;20447;-51
2021/12/20 12:49:21;;;;;;;4.93;1.15;;;;;;;5.05;47.78;98957.13;4838223;29;20038;-49
2021/12/20 12:51:53;;;;;;;3.53;1.25;;;;;;;5.21;47.85;98953.09;4866538;29;20029;-51
2021/12/20 12:54:33;;;;;;;2.80;1.00;;;;;;;5.19;48.98;98954.88;4839305;29;20549;-52
2021/12/20 12:57:11;;;;;;;4.53;1.40;;;;;;;5.18;50.17;98954.03;4848835;29;20146;-51
2021/12/20 12:59:55;;;;;;;5.40;1.55;;;;;;;5.22;51.83;98952.19;4843045;29;20114;-49
2021/12/20 13:02:37;;;;;;;8.18;2.03;;;;;;;5.25;52.15;98954.69;4868246;29;20065;-50
2021/12/20 13:05:05;;;;;;;6.07;1.38;;;;;;;5.22;51.09;98955.63;4850936;29;20029;-51
2021/12/20 13:07:32;;;;;;;5.82;1.58;;;;;;;5.33;49.46;98950.03;4860775;29;20041;-51
2021/12/20 13:09:59;;;;;;;3.95;1.35;;;;;;;5.30;50.28;98957.09;4855961;29;20036;-53
2021/12/20 13:12:43;;;;;;;2.75;1.20;;;;;;;5.15;51.32;98959.34;4851353;29;20117;-49
2021/12/20 13:15:18;;;;;;;7.45;1.50;;;;;;;5.28;50.83;98959.78;4842916;29;20453;-52
2021/12/20 13:17:46;;;;;;;5.88;1.40;;;;;;;5.41;51.36;98961.03;4852667;29;20057;-53
2021/12/20 13:23:03;;;;;;;8.27;1.70;;;;;;;5.38;52.00;98958.53;4847866;29;20041;-49
2021/12/20 13:25:40;;;;;;;5.90;1.45;;;;;;;5.06;53.03;98949.28;4848035;29;20487;-53
2021/12/20 13:28:18;;;;;;;6.40;2.25;;;;;;;5.17;52.52;98941.09;4874862;29;20509;-48
2021/12/20 13:30:45;;;;;;;6.07;1.80;;;;;;;5.38;52.43;98955.09;4847130;29;20033;-47
2021/12/20 13:33:10;;;;;;;5.07;1.30;;;;;;;5.31;51.36;98946.66;4848778;29;20053;-54
2021/12/20 13:35:38;;;;;;;4.93;1.80;;;;;;;5.02;51.00;98947.66;4846534;29;20034;-50
2021/12/20 13:38:30;;;;;;;6.63;2.35;;;;;;;5.21;52.60;98945.28;4849689;29;20104;-52
2021/12/20 13:40:57;;;;;;;5.50;1.95;;;;;;;5.27;53.42;98937.28;4850477;29;20037;-51
2021/12/20 13:43:59;;;;;;;6.15;1.85;;;;;;;5.61;51.84;98946.44;4854839;29;20034;-50
2021/12/20 13:46:23;;;;;;;3.67;1.20;;;;;;;5.48;50.86;98951.25;4848324;29;20045;-51
2021/12/20 13:48:55;;;;;;;4.90;1.60;;;;;;;5.00;51.51;98939.91;4846735;29;20034;-53
2021/12/20 13:51:22;;;;;;;;;;;;;;;4.61;52.75;98942.13;4863409;29;20045;-53
2021/12/20 13:53:47;;;;;;;5.95;1.60;;;;;;;4.78;52.55;98943.28;4846905;29;19912;-49
2021/12/20 13:56:13;;;;;;;5.20;1.58;;;;;;;4.77;52.33;98945.03;4861841;29;20033;-49
2021/12/20 13:58:39;;;;;;;4.90;1.50;;;;;;;4.84;52.16;98938.75;4850418;29;20030;-49
2021/12/20 14:01:05;;;;;;;9.32;1.55;;;;;;;4.63;52.73;98939.47;4861763;29;20041;-48
2021/12/20 14:03:30;;;;;;;6.93;1.40;;;;;;;4.60;53.04;98936.97;4876758;29;20037;-52
2021/12/20 14:05:55;;;;;;;7.05;2.42;;;;;;;4.45;53.13;98941.75;4847585;29;20022;-53
2021/12/20 14:08:23;;;;;;;5.93;1.70;;;;;;;4.50;51.96;98941.59;4847228;29;20038;-51
2021/12/20 14:10:51;;;;;;;3.72;1.08;;;;;;;4.23;53.07;98945.91;4844725;29;20061;-49
2021/12/20 14:13:23;;;;;;;6.55;1.60;;;;;;;4.40;52.66;98946.22;4849713;29;20106;-52
2021/12/20 14:15:56;;;;;;;6.97;1.60;;;;;;;4.31;52.27;98943.94;4859895;29;20129;-51
2021/12/20 14:18:26;;;;;;;4.70;1.33;;;;;;;4.27;52.62;98945.78;4859985;29;20034;-49
2021/12/20 14:20:57;;;;;;;4.38;1.38;;;;;;;4.04;52.41;98946.47;4845725;29;20042;-54
2021/12/20 14:23:24;;;;;;;6.43;1.65;;;;;;;4.08;52.43;98947.25;4830781;29;20033;-52
2021/12/20 14:26:06;;;;;;;3.70;1.10;;;;;;;4.17;52.82;98946.13;4844605;29;20042;-51
2021/12/20 14:28:36;;;;;;;2.85;0.98;;;;;;;4.13;52.56;98947.97;4848632;29;20041;-49
2021/12/20 14:31:06;;;;;;;4.80;1.23;;;;;;;4.04;53.35;98956.03;4855991;29;20034;-55
2021/12/20 14:33:36;;;;;;;5.18;1.80;;;;;;;3.90;54.99;98953.84;4847616;29;20688;-52
2021/12/20 14:36:08;;;;;;;4.65;1.45;;;;;;;4.00;54.87;98954.44;4842610;29;20065;-49
2021/12/20 14:38:37;;;;;;;8.23;1.63;;;;;;;4.01;54.28;98956.13;4842626;29;20052;-51
2021/12/20 14:41:22;;;;;;;6.18;1.90;;;;;;;3.91;55.11;98955.53;4842158;29;20057;-49
2021/12/20 14:43:49;;;;;;;8.43;1.63;;;;;;;3.85;54.61;98960.91;4833597;29;20037;-49
2021/12/20 14:49:11;;;;;;;5.43;1.45;;;;;;;3.60;54.46;98967.69;4824375;29;20171;-53
2021/12/20 14:51:37;;;;;;;6.68;2.85;;;;;;;3.78;53.23;98975.78;4839726;29;20025;-53
2021/12/20 14:54:19;;;;;;;5.07;1.50;;;;;;;3.67;53.32;98964.03;4843411;29;20107;-51
2021/12/20 14:57:02;;;;;;;5.28;1.55;;;;;;;3.57;53.78;98966.88;4845482;29;20037;-51
2021/12/20 14:59:29;;;;;;;6.85;1.40;;;;;;;3.60;53.49;98959.91;4855927;29;20450;-53
2021/12/20 15:01:56;;;;;;;6.18;1.88;;;;;;;3.39;55.57;98964.81;4860496;29;20478;-49
2021/12/20 15:04:21;;;;;;;5.53;1.52;;;;;;;3.08;57.07;98955.25;4850527;29;20055;-48
2021/12/20 15:06:49;;;;;;;7.72;1.80;;;;;;;3.26;56.77;98966.03;4844337;29;20038;-53
2021/12/20 15:09:15;;;;;;;4.20;1.27;;;;;;;3.21;56.86;98962.72;4844459;29;20030;-50
2021/12/20 15:11:41;;;;;;;4.55;1.50;;;;;;;3.19;56.96;98964.50;4844768;29;20082;-49
2021/12/20 15:14:06;;;;;;;4.85;1.40;;;;;;;2.92;59.15;98961.72;4852920;29;20025;-52
2021/12/20 15:16:32;;;;;;;8.38;2.00;;;;;;;2.95;58.81;98961.66;4842015;29;20102;-50
2021/12/20 15:18:58;;;;;;;7.82;1.98;;;;;;;2.97;58.73;98965.06;4823643;29;20030;-50
2021/12/20 15:21:24;;;;;;;6.40;1.70;;;;;;;2.87;59.06;98957.56;4823407;29;20049;-53
2021/12/20 15:23:49;;;;;;;6.72;1.83;;;;;;;2.75;60.45;98949.22;4842365;29;20041;-50
2021/12/20 15:26:15;;;;;;;5.88;1.67;;;;;;;2.71;60.23;98954.50;4841806;29;20026;-52
2021/12/20 15:28:40;;;;;;;5.75;1.60;;;;;;;2.67;60.61;98955.47;4857196;29;20444;-49
2021/12/20 15:31:06;;;;;;;6.78;1.98;;;;;;;2.61;59.87;98954.75;4858618;29;20041;-52
2021/12/20 15:33:31;;;;;;;9.07;2.80;;;;;;;2.33;62.48;98961.44;4845617;29;20030;-52
2021/12/20 15:35:56;;;;;;;5.05;1.90;;;;;;;2.42;61.71;98969.00;4841144;29;20040;-54
2021/12/20 15:38:22;;;;;;;7.38;2.20;;;;;;;2.46;60.88;98957.69;4841627;29;20044;-50
2021/12/20 15:40:47;;;;;;;5.78;2.20;;;;;;;2.30;62.41;98964.09;4841471;29;20030;-51
2021/12/20 15:43:14;;;;;;;6.15;1.80;;;;;;;2.28;61.71;98976.25;4842059;29;20026;-52
2021/12/20 15:45:40;;;;;;;6.97;1.90;;;;;;;2.26;61.21;98970.25;4824818;29;20027;-50
2021/12/20 15:48:06;;;;;;;6.82;1.83;;;;;;;1.86;65.08;98977.16;4852544;29;20037;-49
2021/12/20 15:50:32;;;;;;;17.60;5.82;;;;;;;1.63;64.68;98982.78;4843607;29;20045;-52
2021/12/20 15:52:57;;;;;;;272.35;90.65;;;;;;;1.43;66.03;98977.16;4853250;29;20405;-50
2021/12/20 15:55:23;;;;;;;123.97;46.25;;;;;;;1.10;66.54;98984.69;4840896;29;20038;-53
2021/12/20 15:57:48;;;;;;;29.58;12.07;;;;;;;1.01;67.42;98974.50;4841170;29;20502;-52
2021/12/20 16:00:14;;;;;;;42.35;16.23;;;;;;;0.97;67.41;98977.19;4848331;29;20037;-51
2021/12/20 16:02:40;;;;;;;292.48;123.13;;;;;;;0.78;67.60;98963.72;4857952;29;20029;-53
2021/12/20 16:05:06;;;;;;;82.88;37.88;;;;;;;0.86;68.84;98977.34;4850975;29;20038;-49
2021/12/20 16:07:32;;;;;;;56.67;23.60;;;;;;;0.83;68.57;98980.00;4853845;29;20048;-52
2021/12/20 16:09:57;;;;;;;36.83;15.88;;;;;;;0.59;69.85;98987.25;4853540;29;20030;-51
2021/12/20 16:12:23;;;;;;;61.65;21.65;;;;;;;0.53;70.03;98984.78;4840060;29;20040;-48
2021/12/20 16:14:48;;;;;;;163.90;56.05;;;;;;;0.43;70.31;98994.38;4843628;29;20098;-51
2021/12/20 16:17:13;;;;;;;70.40;30.95;;;;;;;0.59;70.10;98992.44;4849508;29;20025;-51
2021/12/20 16:19:39;;;;;;;48.53;19.30;;;;;;;0.33;71.00;98997.13;4856258;29;20414;-48
2021/12/20 16:22:04;;;;;;;34.65;14.00;;;;;;;0.25;71.79;98986.91;4840698;29;20042;-54
2021/12/20 16:24:31;;;;;;;20.88;9.10;;;;;;;0.26;72.67;98987.78;4840327;29;20042;-50
2021/12/20 16:26:56;;;;;;;17.83;7.00;;;;;;;0.31;72.36;98994.59;4855871;29;20092;-51
2021/12/20 16:29:23;;;;;;;16.85;7.15;;;;;;;0.17;72.37;99004.22;4855185;29;20033;-51
2021/12/20 16:31:48;;;;;;;17.33;8.07;;;;;;;0.16;73.09;99003.38;4841724;29;20045;-52
2021/12/20 16:34:13;;;;;;;21.42;9.57;;;;;;;-0.03;73.57;99001.94;4841631;29;20034;-48
2021/12/20 16:36:39;;;;;;;22.73;10.32;;;;;;;-0.23;73.64;99004.75;4854985;29;20490;-49
2021/12/20 16:39:04;;;;;;;38.55;17.58;;;;;;;-0.24;73.58;99003.06;4839902;29;20040;-51
2021/12/20 16:41:30;;;;;;;32.60;15.40;;;;;;;-0.23;73.41;99003.91;4823275;29;20034;-52
2021/12/20 16:43:57;;;;;;;38.30;16.70;;;;;;;-0.24;73.57;99013.38;4841734;29;20429;-52
2021/12/20 16:46:22;;;;;;;50.55;25.15;;;;;;;-0.44;74.10;99008.44;4840933;29;20086;-51
2021/12/20 16:48:50;;;;;;;47.15;23.42;;;;;;;-0.29;73.69;99016.00;4840190;29;20034;-51
2021/12/20 16:51:15;;;;;;;45.55;21.90;;;;;;;-0.49;74.15;99008.47;4840451;29;20038;-51
2021/12/20 16:53:41;;;;;;;29.88;14.23;;;;;;;-0.40;74.88;99007.53;4822183;29;20030;-52
2021/12/20 16:56:06;;;;;;;28.38;11.65;;;;;;;-0.49;74.49;98995.59;4822535;29;20398;-53
2021/12/20 16:58:32;;;;;;;20.85;12.10;;;;;;;-0.52;75.85;99007.66;4850653;29;20030;-53
2021/12/20 17:00:59;;;;;;;22.13;10.07;;;;;;;-0.54;75.62;98991.38;4844138;29;20079;-54
2021/12/20 17:08:16;;;;;;;16.95;8.98;;;;;;;-0.57;75.56;99006.88;4860268;29;20541;-54
2021/12/20 17:10:45;;;;;;;19.33;10.32;;;;;;;-0.67;76.29;99010.41;4844140;29;20032;-52
2021/12/20 17:13:12;;;;;;;25.25;12.48;;;;;;;-0.53;75.73;99016.28;4844292;29;20045;-53
2021/12/20 17:15:39;;;;;;;28.27;14.43;;;;;;;-0.49;75.58;99005.06;4859272;29;20080;-50
2021/12/20 17:18:05;;;;;;;33.13;16.50;;;;;;;-0.74;75.55;99007.91;4863966;29;20112;-47
2021/12/20 17:20:31;;;;;;;25.50;12.00;;;;;;;-0.91;77.04;99012.38;4842585;29;20168;-48
2021/12/20 17:22:56;;;;;;;20.42;11.90;;;;;;;-0.82;76.97;99014.88;4843549;29;20026;-56
2021/12/20 17:25:22;;;;;;;19.13;11.00;;;;;;;-0.88;77.14;99012.34;4843780;29;20402;-48
2021/12/20 17:27:47;;;;;;;22.05;11.23;;;;;;;-0.94;77.64;99009.81;4859078;29;20413;-51
2021/12/20 17:30:13;;;;;;;18.33;8.85;;;;;;;-0.87;77.74;99008.88;4842417;29;20047;-52
2021/12/20 17:32:38;;;;;;;21.17;8.90;;;;;;;-0.91;77.37;99014.94;4845599;29;20706;-47
2021/12/20 17:35:04;;;;;;;16.90;8.65;;;;;;;-0.81;77.40;99016.56;4844705;29;20086;-52
2021/12/20 17:37:29;;;;;;;19.35;9.95;;;;;;;-1.01;77.08;99014.16;4848103;29;20029;-50
2021/12/20 17:39:55;;;;;;;16.20;7.63;;;;;;;-0.85;77.30;99022.63;4846118;29;20402;-51
2021/12/20 17:42:20;;;;;;;14.20;5.90;;;;;;;-0.98;77.39;99031.31;4859845;29;20033;-48
2021/12/20 17:44:46;;;;;;;9.77;4.72;;;;;;;-1.23;78.82;99026.38;4846004;29;20034;-49
2021/12/20 17:47:11;;;;;;;14.13;5.40;;;;;;;-1.20;78.82;99023.78;4850109;29;20501;-47
2021/12/20 17:49:37;;;;;;;15.07;6.00;;;;;;;-1.24;78.56;99032.41;4848649;29;20090;-54
2021/12/20 17:52:07;;;;;;;11.18;4.72;;;;;;;-1.12;78.54;99035.75;4856006;29;20487;-54
2021/12/20 17:54:32;;;;;;;10.52;5.25;;;;;;;-1.17;79.35;99032.34;4849436;29;20072;-51
2021/12/20 17:56:57;;;;;;;13.63;5.75;;;;;;;-1.29;79.63;99029.00;4865066;29;20443;-49
2021/12/20 17:59:23;;;;;;;13.45;5.55;;;;;;;-1.26;79.59;99026.41;4862232;29;20032;-52
2021/12/20 18:01:48;;;;;;;11.57;5.20;;;;;;;-1.36;79.30;99021.34;4857926;29;20033;-49
2021/12/20 18:04:14;;;;;;;11.85;5.55;;;;;;;-1.31;79.68;99028.19;4856139;29;20033;-49
2021/12/20 18:06:43;;;;;;;12.60;5.65;;;;;;;-1.65;80.59;99031.81;4846986;29;20101;-52
2021/12/20 18:09:08;;;;;;;17.58;7.00;;;;;;;-1.67;80.44;99034.44;4847426;29;20022;-52
2021/12/20 18:11:34;;;;;;;17.63;8.15;;;;;;;-1.63;80.49;99032.69;4866022;29;20051;-53
2021/12/20 18:14:00;;;;;;;15.75;7.15;;;;;;;-1.40;79.89;99030.81;4863771;29;20375;-50
2021/12/20 18:16:26;;;;;;;18.20;7.78;;;;;;;-1.41;80.23;99034.25;4845020;29;20065;-51
2021/12/20 18:18:51;;;;;;;17.05;8.25;;;;;;;-1.62;80.60;99035.22;4862143;29;20487;-52
2021/12/20 18:21:17;;;;;;;18.52;9.20;;;;;;;-1.33;79.55;99045.34;4861166;29;20051;-48
2021/12/20 18:23:42;;;;;;;22.05;10.15;;;;;;;-1.37;79.56;99045.38;4863364;29;20033;-51
2021/12/20 18:26:08;;;;;;;22.27;10.18;;;;;;;-1.38;79.30;99039.34;4848757;29;20034;-49
2021/12/20 18:28:33;;;;;;;23.38;10.13;;;;;;;-1.53;80.11;99044.63;4850709;29;20124;-50
2021/12/20 18:30:59;;;;;;;22.02;10.25;;;;;;;-1.59;80.50;99045.50;4856465;29;20026;-51
2021/12/20 18:33:24;;;;;;;35.90;17.80;;;;;;;-1.44;79.04;99035.13;4843561;29;20112;-48
2021/12/20 18:35:49;;;;;;;56.90;26.23;;;;;;;-1.29;79.16;99039.31;4847228;29;20038;-48
2021/12/20 18:38:30;;;;;;;44.63;20.60;;;;;;;-1.42;79.14;99029.09;4861328;29;20029;-49
2021/12/20 18:40:56;;;;;;;52.90;23.35;;;;;;;-1.48;81.20;99030.88;4850609;29;20070;-47
2021/12/20 18:43:22;;;;;;;61.78;29.27;;;;;;;-1.39;78.75;99045.38;4853842;29;20063;-51
2021/12/20 18:45:48;;;;;;;27.17;13.07;;;;;;;-1.78;79.66;99033.66;4849540;29;20037;-46
2021/12/20 18:48:17;;;;;;;18.65;10.02;;;;;;;-1.75;80.06;99047.34;4845155;29;20034;-47
2021/12/20 18:50:43;;;;;;;30.45;17.20;;;;;;;-2.28;82.16;99037.28;4844105;29;20033;-47
2021/12/20 18:53:08;;;;;;;18.00;8.15;;;;;;;-2.16;81.73;99053.53;4842075;29;20037;-49
2021/12/20 18:55:34;;;;;;;16.90;7.57;;;;;;;-2.21;81.26;99049.25;4843685;29;20036;-47
2021/12/20 18:57:59;;;;;;;16.27;7.35;;;;;;;-2.44;82.57;99051.94;4860947;29;20478;-49
2021/12/20 19:00:25;;;;;;;16.25;7.13;;;;;;;-2.34;82.08;99053.59;4858721;29;20021;-51
2021/12/20 19:02:50;;;;;;;15.70;6.70;;;;;;;-2.09;81.41;99046.66;4843473;29;20461;-47
2021/12/20 19:05:15;;;;;;;14.75;6.68;;;;;;;-1.98;81.32;99042.31;4841712;29;20086;-52
2021/12/20 19:07:41;;;;;;;13.63;6.10;;;;;;;-2.03;81.01;99032.91;4854885;29;20055;-47
2021/12/20 19:10:13;;;;;;;14.00;6.40;;;;;;;-1.71;79.33;99048.19;4842473;29;20756;-48
2021/12/20 19:12:39;;;;;;;15.23;7.07;;;;;;;-1.76;79.80;99057.63;4841745;29;20077;-50
2021/12/20 19:15:05;;;;;;;20.27;8.18;;;;;;;-1.65;78.89;99049.84;4840551;29;20034;-46
2021/12/20 19:17:30;;;;;;;16.08;8.07;;;;;;;-1.95;80.18;99049.16;4842288;29;20113;-50
2021/12/20 19:19:55;;;;;;;16.30;8.00;;;;;;;-2.07;80.87;99050.06;4850455;29;20074;-46
2021/12/20 19:22:21;;;;;;;15.27;7.70;;;;;;;-1.99;80.42;99050.03;4860485;29;20029;-53
2021/12/20 19:24:46;;;;;;;15.02;7.10;;;;;;;-2.02;79.57;99050.06;4858573;29;20025;-49
2021/12/20 19:27:12;;;;;;;14.25;6.63;;;;;;;-2.35;81.46;99045.88;4851967;29;20032;-51
2021/12/20 19:29:38;;;;;;;15.18;7.70;;;;;;;-2.27;81.02;99045.03;4870283;29;20052;-51
2021/12/20 19:32:04;;;;;;;22.08;12.50;;;;;;;-2.41;81.68;99059.59;4843457;29;20398;-52
2021/12/20 19:34:30;;;;;;;14.63;6.97;;;;;;;-2.35;81.45;99067.28;4856574;29;20037;-52
2021/12/20 19:36:58;;;;;;;14.13;6.57;;;;;;;-2.37;81.69;99069.03;4856434;29;20104;-52
2021/12/20 19:39:26;;;;;;;12.27;5.47;;;;;;;-2.30;80.95;99054.44;4849564;29;20021;-51
2021/12/20 19:41:52;;;;;;;16.63;6.63;;;;;;;-2.50;81.89;99067.34;4841572;29;20038;-49
2021/12/20 19:44:19;;;;;;;20.58;11.57;;;;;;;-2.56;82.66;99067.34;4844310;29;20046;-50
2021/12/20 19:46:44;;;;;;;14.52;6.55;;;;;;;-2.39;81.66;99063.88;4842292;29;20034;-51
2021/12/20 19:49:10;;;;;;;13.82;6.50;;;;;;;-2.31;81.34;99063.00;4840635;29;20033;-52
2021/12/20 19:51:35;;;;;;;15.10;6.40;;;;;;;-2.21;81.22;99057.81;4840889;29;20067;-50
2021/12/20 19:54:03;;;;;;;15.00;7.28;;;;;;;-1.98;79.41;99062.03;4840889;29;20041;-50
2021/12/20 19:56:28;;;;;;;17.25;8.68;;;;;;;-1.91;79.11;99066.28;4869424;29;20625;-50
2021/12/20 19:58:54;;;;;;;16.70;8.50;;;;;;;-1.97;79.87;99063.72;4840258;29;20056;-53
2021/12/20 20:01:20;;;;;;;18.55;9.70;;;;;;;-2.12;80.24;99059.50;4840817;29;20448;-52
2021/12/20 20:03:46;;;;;;;23.65;10.13;;;;;;;-2.02;80.56;99066.31;4841817;29;20053;-48
2021/12/20 20:06:12;;;;;;;20.70;9.63;;;;;;;-2.21;81.36;99067.25;4832802;29;20171;-47
2021/12/20 20:08:37;;;;;;;21.63;9.43;;;;;;;-2.22;80.65;99068.13;4833290;29;20049;-50
2021/12/20 20:11:02;;;;;;;20.90;9.30;;;;;;;-2.09;80.19;99063.78;4840090;29;20120;-52
2021/12/20 20:13:28;;;;;;;17.98;9.63;;;;;;;-1.95;79.55;99064.59;4840084;29;20038;-51
2021/12/20 20:15:57;;;;;;;22.92;10.65;;;;;;;-1.60;77.40;99053.25;4822877;29;20078;-48
2021/12/20 20:18:24;;;;;;;24.38;10.85;;;;;;;-1.95;79.21;99062.88;4837911;29;20521;-50
2021/12/20 20:20:50;;;;;;;30.00;15.93;;;;;;;-2.28;80.51;99058.69;4848352;29;20406;-49
2021/12/20 20:23:15;;;;;;;28.55;15.57;;;;;;;-2.67;82.15;99060.53;4858496;29;20037;-48
2021/12/20 20:25:41;;;;;;;30.77;15.85;;;;;;;-2.55;81.45;99058.78;4841275;29;20025;-48
2021/12/20 20:28:06;;;;;;;25.27;12.57;;;;;;;-2.49;81.36;99069.06;4848080;29;20040;-49
2021/12/20 20:30:33;;;;;;;19.50;10.40;;;;;;;-2.52;81.34;99061.34;4858219;29;20033;-48
2021/12/20 20:33:00;;;;;;;24.05;10.95;;;;;;;-2.34;80.71;99071.59;4839345;29;20141;-49
2021/12/20 20:35:25;;;;;;;27.05;12.63;;;;;;;-2.31;80.83;99073.28;4845063;29;20329;-46
2021/12/20 20:37:51;;;;;;;22.05;10.00;;;;;;;-2.19;80.34;99057.84;4845413;29;20120;-48
2021/12/20 20:40:16;;;;;;;18.15;10.00;;;;;;;-2.13;80.45;99070.66;4848157;29;20030;-47
2021/12/20 20:42:41;;;;;;;18.38;9.02;;;;;;;-1.93;79.31;99063.72;4855204;29;20037;-46
2021/12/20 20:45:07;;;;;;;21.95;10.02;;;;;;;-1.99;79.16;99066.31;4859436;29;20465;-49
2021/12/20 20:47:32;;;;;;;22.70;11.40;;;;;;;-2.28;80.14;99063.84;4843521;29;20045;-46
2021/12/20 20:50:00;;;;;;;22.05;11.10;;;;;;;-2.20;80.04;99068.97;4856761;29;20093;-47
2021/12/20 20:52:26;;;;;;;24.40;12.82;;;;;;;-2.23;80.51;99069.00;4851270;29;20124;-49
2021/12/20 20:54:51;;;;;;;26.88;14.40;;;;;;;-2.33;80.78;99064.75;4847563;29;20041;-48
2021/12/20 20:57:16;;;;;;;25.08;12.77;;;;;;;-2.48;81.51;99068.19;4834294;29;20030;-46
2021/12/20 20:59:42;;;;;;;30.45;14.88;;;;;;;-2.55;81.11;99069.06;4843335;29;20029;-49
2021/12/20 21:02:07;;;;;;;26.15;13.30;;;;;;;-2.42;80.93;99081.03;4844144;29;20398;-48
2021/12/20 21:04:33;;;;;;;25.23;13.00;;;;;;;-2.54;81.62;99065.66;4843476;29;20034;-47
